sensor_id;sensor_type;location;lat;lon;timestamp;P1;durP1;ratioP1;P2;durP2;ratioP2
51312;SDS011;37397;53.226;10.400;2024-02-15T00:01:52;8.93;;;5.60;;
51312;SDS011;37397;53.226;10.400;2024-02-15T00:04:18;9.50;;;6.43;;
51312;SDS011;37397;53.226;10.400;2024-02-15T00:06:46;8.75;;;6.30;;
51312;SDS011;37397;53.226;10.400;2024-02-15T00:09:13;8.93;;;6.47;;
51312;SDS011;37397;53.226;10.400;2024-02-15T00:11:40;8.60;;;5.88;;
51312;SDS011;37397;53.226;10.400;2024-02-15T00:14:07;9.15;;;6.40;;
51312;SDS011;37397;53.226;10.400;2024-02-15T00:16:34;9.48;;;6.50;;
51312;SDS011;37397;53.226;10.400;2024-02-15T00:19:04;9.80;;;6.55;;
51312;SDS011;37397;53.226;10.400;2024-02-15T00:21:33;10.15;;;6.53;;
51312;SDS011;37397;53.226;10.400;2024-02-15T00:24:01;11.65;;;6.72;;
51312;SDS011;37397;53.226;10.400;2024-02-15T00:26:28;9.25;;;6.95;;
51312;SDS011;37397;53.226;10.400;2024-02-15T00:28:55;12.20;;;7.00;;
51312;SDS011;37397;53.226;10.400;2024-02-15T00:31:21;8.95;;;6.53;;
51312;SDS011;37397;53.226;10.400;2024-02-15T00:33:49;9.50;;;6.43;;
51312;SDS011;37397;53.226;10.400;2024-02-15T00:36:16;8.95;;;6.43;;
51312;SDS011;37397;53.226;10.400;2024-02-15T00:38:44;9.27;;;6.05;;
51312;SDS011;37397;53.226;10.400;2024-02-15T00:41:11;8.38;;;6.00;;
51312;SDS011;37397;53.226;10.400;2024-02-15T00:43:38;10.55;;;6.82;;
51312;SDS011;37397;53.226;10.400;2024-02-15T00:46:04;8.73;;;5.90;;
51312;SDS011;37397;53.226;10.400;2024-02-15T00:48:31;9.23;;;6.25;;
51312;SDS011;37397;53.226;10.400;2024-02-15T00:50:58;8.70;;;5.60;;
51312;SDS011;37397;53.226;10.400;2024-02-15T00:53:26;8.05;;;5.72;;
51312;SDS011;37397;53.226;10.400;2024-02-15T00:55:52;8.50;;;5.65;;
51312;SDS011;37397;53.226;10.400;2024-02-15T00:58:19;9.15;;;6.20;;
51312;SDS011;37397;53.226;10.400;2024-02-15T01:00:48;9.60;;;6.60;;
51312;SDS011;37397;53.226;10.400;2024-02-15T01:03:15;8.38;;;6.03;;
51312;SDS011;37397;53.226;10.400;2024-02-15T01:05:42;9.20;;;6.55;;
51312;SDS011;37397;53.226;10.400;2024-02-15T01:08:09;11.13;;;6.88;;
51312;SDS011;37397;53.226;10.400;2024-02-15T01:10:36;10.90;;;7.07;;
51312;SDS011;37397;53.226;10.400;2024-02-15T01:13:03;9.48;;;6.32;;
51312;SDS011;37397;53.226;10.400;2024-02-15T01:15:29;9.40;;;6.80;;
51312;SDS011;37397;53.226;10.400;2024-02-15T01:17:56;10.40;;;7.07;;
51312;SDS011;37397;53.226;10.400;2024-02-15T01:20:23;9.95;;;7.30;;
51312;SDS011;37397;53.226;10.400;2024-02-15T01:22:49;10.20;;;6.90;;
51312;SDS011;37397;53.226;10.400;2024-02-15T01:25:18;11.55;;;7.85;;
51312;SDS011;37397;53.226;10.400;2024-02-15T01:27:44;12.25;;;8.20;;
51312;SDS011;37397;53.226;10.400;2024-02-15T01:30:11;11.55;;;8.30;;
51312;SDS011;37397;53.226;10.400;2024-02-15T01:32:38;12.48;;;8.45;;
51312;SDS011;37397;53.226;10.400;2024-02-15T01:35:09;11.48;;;8.70;;
51312;SDS011;37397;53.226;10.400;2024-02-15T01:37:36;11.38;;;8.30;;
51312;SDS011;37397;53.226;10.400;2024-02-15T01:40:04;11.70;;;8.40;;
51312;SDS011;37397;53.226;10.400;2024-02-15T01:42:33;12.88;;;9.27;;
51312;SDS011;37397;53.226;10.400;2024-02-15T01:44:59;13.15;;;9.02;;
51312;SDS011;37397;53.226;10.400;2024-02-15T01:47:26;13.43;;;9.27;;
51312;SDS011;37397;53.226;10.400;2024-02-15T01:49:53;13.23;;;9.73;;
51312;SDS011;37397;53.226;10.400;2024-02-15T01:52:20;13.25;;;9.77;;
51312;SDS011;37397;53.226;10.400;2024-02-15T01:54:48;13.77;;;9.98;;
51312;SDS011;37397;53.226;10.400;2024-02-15T01:57:17;15.40;;;10.60;;
51312;SDS011;37397;53.226;10.400;2024-02-15T01:59:47;14.35;;;9.95;;
51312;SDS011;37397;53.226;10.400;2024-02-15T02:02:15;14.20;;;10.25;;
51312;SDS011;37397;53.226;10.400;2024-02-15T02:04:45;15.50;;;10.60;;
51312;SDS011;37397;53.226;10.400;2024-02-15T02:07:12;15.82;;;11.07;;
51312;SDS011;37397;53.226;10.400;2024-02-15T02:09:41;17.63;;;11.52;;
51312;SDS011;37397;53.226;10.400;2024-02-15T02:12:07;16.13;;;10.70;;
51312;SDS011;37397;53.226;10.400;2024-02-15T02:14:35;18.15;;;12.35;;
51312;SDS011;37397;53.226;10.400;2024-02-15T02:17:12;16.45;;;11.77;;
51312;SDS011;37397;53.226;10.400;2024-02-15T02:19:42;17.08;;;11.02;;
51312;SDS011;37397;53.226;10.400;2024-02-15T02:22:11;18.38;;;12.57;;
51312;SDS011;37397;53.226;10.400;2024-02-15T02:25:24;16.25;;;12.18;;
51312;SDS011;37397;53.226;10.400;2024-02-15T02:27:35;17.33;;;12.65;;
51312;SDS011;37397;53.226;10.400;2024-02-15T02:30:11;19.73;;;13.00;;
51312;SDS011;37397;53.226;10.400;2024-02-15T02:32:45;18.38;;;12.07;;
51312;SDS011;37397;53.226;10.400;2024-02-15T02:35:12;17.20;;;11.85;;
51312;SDS011;37397;53.226;10.400;2024-02-15T02:37:39;14.98;;;10.27;;
51312;SDS011;37397;53.226;10.400;2024-02-15T02:40:06;16.02;;;11.32;;
51312;SDS011;37397;53.226;10.400;2024-02-15T02:42:54;16.67;;;11.52;;
51312;SDS011;37397;53.226;10.400;2024-02-15T02:45:28;16.15;;;11.45;;
51312;SDS011;37397;53.226;10.400;2024-02-15T02:47:54;16.52;;;11.45;;
51312;SDS011;37397;53.226;10.400;2024-02-15T02:50:21;18.20;;;11.50;;
51312;SDS011;37397;53.226;10.400;2024-02-15T02:52:49;16.45;;;10.93;;
51312;SDS011;37397;53.226;10.400;2024-02-15T02:55:16;16.90;;;10.80;;
51312;SDS011;37397;53.226;10.400;2024-02-15T02:57:43;15.70;;;10.82;;
51312;SDS011;37397;53.226;10.400;2024-02-15T03:00:10;15.77;;;10.65;;
51312;SDS011;37397;53.226;10.400;2024-02-15T03:02:43;16.02;;;10.50;;
51312;SDS011;37397;53.226;10.400;2024-02-15T03:05:12;14.80;;;10.18;;
51312;SDS011;37397;53.226;10.400;2024-02-15T03:07:42;14.68;;;10.15;;
51312;SDS011;37397;53.226;10.400;2024-02-15T03:10:08;14.93;;;9.80;;
51312;SDS011;37397;53.226;10.400;2024-02-15T03:12:40;13.70;;;8.98;;
51312;SDS011;37397;53.226;10.400;2024-02-15T03:15:12;13.80;;;9.48;;
51312;SDS011;37397;53.226;10.400;2024-02-15T03:17:41;13.30;;;9.38;;
51312;SDS011;37397;53.226;10.400;2024-02-15T03:20:09;11.85;;;8.02;;
51312;SDS011;37397;53.226;10.400;2024-02-15T03:22:38;13.48;;;8.93;;
51312;SDS011;37397;53.226;10.400;2024-02-15T03:25:05;12.32;;;8.43;;
51312;SDS011;37397;53.226;10.400;2024-02-15T03:27:35;12.23;;;8.45;;
51312;SDS011;37397;53.226;10.400;2024-02-15T03:30:03;13.63;;;8.63;;
51312;SDS011;37397;53.226;10.400;2024-02-15T03:32:31;12.60;;;8.65;;
51312;SDS011;37397;53.226;10.400;2024-02-15T03:34:57;12.15;;;8.27;;
51312;SDS011;37397;53.226;10.400;2024-02-15T03:37:27;12.32;;;8.23;;
51312;SDS011;37397;53.226;10.400;2024-02-15T03:39:54;10.82;;;7.05;;
51312;SDS011;37397;53.226;10.400;2024-02-15T03:42:21;13.43;;;8.73;;
51312;SDS011;37397;53.226;10.400;2024-02-15T03:44:48;12.55;;;7.90;;
51312;SDS011;37397;53.226;10.400;2024-02-15T03:47:14;11.43;;;7.63;;
51312;SDS011;37397;53.226;10.400;2024-02-15T03:49:41;9.82;;;7.05;;
51312;SDS011;37397;53.226;10.400;2024-02-15T03:52:08;13.38;;;8.13;;
51312;SDS011;37397;53.226;10.400;2024-02-15T03:54:37;11.63;;;7.90;;
51312;SDS011;37397;53.226;10.400;2024-02-15T03:57:03;10.52;;;6.93;;
51312;SDS011;37397;53.226;10.400;2024-02-15T03:59:33;9.45;;;6.47;;
51312;SDS011;37397;53.226;10.400;2024-02-15T04:02:01;10.00;;;7.30;;
51312;SDS011;37397;53.226;10.400;2024-02-15T04:04:29;10.43;;;7.00;;
51312;SDS011;37397;53.226;10.400;2024-02-15T04:06:57;10.93;;;7.10;;
51312;SDS011;37397;53.226;10.400;2024-02-15T04:09:24;9.95;;;6.50;;
51312;SDS011;37397;53.226;10.400;2024-02-15T04:11:51;9.23;;;6.40;;
51312;SDS011;37397;53.226;10.400;2024-02-15T04:14:20;8.93;;;6.30;;
51312;SDS011;37397;53.226;10.400;2024-02-15T04:16:47;9.88;;;6.63;;
51312;SDS011;37397;53.226;10.400;2024-02-15T04:19:14;15.35;;;7.35;;
51312;SDS011;37397;53.226;10.400;2024-02-15T04:21:41;9.40;;;6.60;;
51312;SDS011;37397;53.226;10.400;2024-02-15T04:24:10;9.93;;;7.25;;
51312;SDS011;37397;53.226;10.400;2024-02-15T04:26:37;9.43;;;6.68;;
51312;SDS011;37397;53.226;10.400;2024-02-15T04:29:05;11.20;;;6.95;;
51312;SDS011;37397;53.226;10.400;2024-02-15T04:31:35;11.35;;;6.88;;
51312;SDS011;37397;53.226;10.400;2024-02-15T04:34:05;10.35;;;6.90;;
51312;SDS011;37397;53.226;10.400;2024-02-15T04:36:32;11.57;;;7.07;;
51312;SDS011;37397;53.226;10.400;2024-02-15T04:39:00;9.80;;;7.15;;
51312;SDS011;37397;53.226;10.400;2024-02-15T04:41:29;12.20;;;7.78;;
51312;SDS011;37397;53.226;10.400;2024-02-15T04:43:55;10.95;;;7.18;;
51312;SDS011;37397;53.226;10.400;2024-02-15T04:46:22;10.95;;;7.25;;
51312;SDS011;37397;53.226;10.400;2024-02-15T04:48:49;11.98;;;7.70;;
51312;SDS011;37397;53.226;10.400;2024-02-15T04:51:16;12.02;;;8.27;;
51312;SDS011;37397;53.226;10.400;2024-02-15T04:53:43;11.40;;;8.05;;
51312;SDS011;37397;53.226;10.400;2024-02-15T04:56:12;13.95;;;9.13;;
51312;SDS011;37397;53.226;10.400;2024-02-15T04:58:43;14.05;;;8.57;;
51312;SDS011;37397;53.226;10.400;2024-02-15T05:01:14;13.52;;;8.43;;
51312;SDS011;37397;53.226;10.400;2024-02-15T05:03:42;12.30;;;8.48;;
51312;SDS011;37397;53.226;10.400;2024-02-15T05:06:09;12.55;;;8.32;;
51312;SDS011;37397;53.226;10.400;2024-02-15T05:08:39;12.63;;;8.32;;
51312;SDS011;37397;53.226;10.400;2024-02-15T05:11:10;12.88;;;8.40;;
51312;SDS011;37397;53.226;10.400;2024-02-15T05:13:46;13.30;;;9.23;;
51312;SDS011;37397;53.226;10.400;2024-02-15T05:16:13;13.18;;;8.65;;
51312;SDS011;37397;53.226;10.400;2024-02-15T05:18:40;13.23;;;8.80;;
51312;SDS011;37397;53.226;10.400;2024-02-15T05:21:08;14.82;;;9.35;;
51312;SDS011;37397;53.226;10.400;2024-02-15T05:23:38;12.63;;;8.80;;
51312;SDS011;37397;53.226;10.400;2024-02-15T05:26:06;14.35;;;9.00;;
51312;SDS011;37397;53.226;10.400;2024-02-15T05:28:34;17.48;;;9.25;;
51312;SDS011;37397;53.226;10.400;2024-02-15T05:31:14;15.88;;;9.68;;
51312;SDS011;37397;53.226;10.400;2024-02-15T05:33:46;13.45;;;9.43;;
51312;SDS011;37397;53.226;10.400;2024-02-15T05:36:15;13.70;;;9.48;;
51312;SDS011;37397;53.226;10.400;2024-02-15T05:38:47;14.07;;;9.45;;
51312;SDS011;37397;53.226;10.400;2024-02-15T05:41:16;16.90;;;10.05;;
51312;SDS011;37397;53.226;10.400;2024-02-15T05:43:43;14.93;;;9.45;;
51312;SDS011;37397;53.226;10.400;2024-02-15T05:46:09;14.05;;;9.35;;
51312;SDS011;37397;53.226;10.400;2024-02-15T05:48:36;15.65;;;10.35;;
51312;SDS011;37397;53.226;10.400;2024-02-15T05:51:04;16.52;;;10.63;;
51312;SDS011;37397;53.226;10.400;2024-02-15T05:53:31;15.43;;;9.75;;
51312;SDS011;37397;53.226;10.400;2024-02-15T05:56:03;15.75;;;9.80;;
51312;SDS011;37397;53.226;10.400;2024-02-15T05:58:40;14.70;;;10.15;;
51312;SDS011;37397;53.226;10.400;2024-02-15T06:01:07;15.52;;;10.57;;
51312;SDS011;37397;53.226;10.400;2024-02-15T06:03:38;15.98;;;9.82;;
51312;SDS011;37397;53.226;10.400;2024-02-15T06:06:06;16.15;;;10.52;;
51312;SDS011;37397;53.226;10.400;2024-02-15T06:08:33;15.20;;;10.32;;
51312;SDS011;37397;53.226;10.400;2024-02-15T06:11:01;16.75;;;9.55;;
51312;SDS011;37397;53.226;10.400;2024-02-15T06:13:27;18.67;;;10.60;;
51312;SDS011;37397;53.226;10.400;2024-02-15T06:15:54;15.40;;;10.55;;
51312;SDS011;37397;53.226;10.400;2024-02-15T06:18:21;16.85;;;10.77;;
51312;SDS011;37397;53.226;10.400;2024-02-15T06:20:51;17.48;;;10.48;;
51312;SDS011;37397;53.226;10.400;2024-02-15T06:23:20;16.50;;;11.25;;
51312;SDS011;37397;53.226;10.400;2024-02-15T06:25:47;17.50;;;10.98;;
51312;SDS011;37397;53.226;10.400;2024-02-15T06:28:14;15.52;;;10.82;;
51312;SDS011;37397;53.226;10.400;2024-02-15T06:30:59;17.58;;;10.68;;
51312;SDS011;37397;53.226;10.400;2024-02-15T06:33:44;16.77;;;11.35;;
51312;SDS011;37397;53.226;10.400;2024-02-15T06:36:29;16.92;;;11.70;;
51312;SDS011;37397;53.226;10.400;2024-02-15T06:39:14;17.27;;;12.02;;
51312;SDS011;37397;53.226;10.400;2024-02-15T06:42:00;18.73;;;12.27;;
51312;SDS011;37397;53.226;10.400;2024-02-15T06:44:27;18.40;;;12.48;;
51312;SDS011;37397;53.226;10.400;2024-02-15T06:46:54;17.27;;;11.75;;
51312;SDS011;37397;53.226;10.400;2024-02-15T06:49:22;18.45;;;11.98;;
51312;SDS011;37397;53.226;10.400;2024-02-15T06:51:51;20.33;;;12.70;;
51312;SDS011;37397;53.226;10.400;2024-02-15T06:54:18;19.15;;;12.40;;
51312;SDS011;37397;53.226;10.400;2024-02-15T06:56:45;17.73;;;11.93;;
51312;SDS011;37397;53.226;10.400;2024-02-15T06:59:12;19.63;;;11.25;;
51312;SDS011;37397;53.226;10.400;2024-02-15T07:01:44;17.98;;;12.57;;
51312;SDS011;37397;53.226;10.400;2024-02-15T07:04:11;18.30;;;12.10;;
51312;SDS011;37397;53.226;10.400;2024-02-15T07:06:37;17.80;;;11.57;;
51312;SDS011;37397;53.226;10.400;2024-02-15T07:09:05;18.73;;;12.55;;
51312;SDS011;37397;53.226;10.400;2024-02-15T07:11:33;17.20;;;11.38;;
51312;SDS011;37397;53.226;10.400;2024-02-15T07:14:01;17.23;;;11.80;;
51312;SDS011;37397;53.226;10.400;2024-02-15T07:16:28;17.70;;;11.32;;
51312;SDS011;37397;53.226;10.400;2024-02-15T07:18:55;18.58;;;11.90;;
51312;SDS011;37397;53.226;10.400;2024-02-15T07:21:23;18.00;;;11.48;;
51312;SDS011;37397;53.226;10.400;2024-02-15T07:23:53;18.73;;;11.13;;
51312;SDS011;37397;53.226;10.400;2024-02-15T07:26:23;17.80;;;11.25;;
51312;SDS011;37397;53.226;10.400;2024-02-15T07:28:54;17.20;;;10.85;;
51312;SDS011;37397;53.226;10.400;2024-02-15T07:31:21;20.67;;;11.23;;
51312;SDS011;37397;53.226;10.400;2024-02-15T07:33:48;17.75;;;10.95;;
51312;SDS011;37397;53.226;10.400;2024-02-15T07:36:21;20.67;;;12.05;;
51312;SDS011;37397;53.226;10.400;2024-02-15T07:38:50;24.77;;;11.63;;
51312;SDS011;37397;53.226;10.400;2024-02-15T07:41:17;23.95;;;11.43;;
51312;SDS011;37397;53.226;10.400;2024-02-15T07:43:46;19.42;;;11.48;;
51312;SDS011;37397;53.226;10.400;2024-02-15T07:46:13;21.92;;;11.25;;
51312;SDS011;37397;53.226;10.400;2024-02-15T07:48:43;18.73;;;11.75;;
51312;SDS011;37397;53.226;10.400;2024-02-15T07:51:14;20.80;;;11.15;;
51312;SDS011;37397;53.226;10.400;2024-02-15T07:53:42;20.88;;;12.15;;
51312;SDS011;37397;53.226;10.400;2024-02-15T07:56:09;19.58;;;11.35;;
51312;SDS011;37397;53.226;10.400;2024-02-15T07:58:40;17.58;;;11.35;;
51312;SDS011;37397;53.226;10.400;2024-02-15T08:01:08;17.25;;;11.85;;
51312;SDS011;37397;53.226;10.400;2024-02-15T08:03:37;19.08;;;11.70;;
51312;SDS011;37397;53.226;10.400;2024-02-15T08:06:09;19.95;;;11.13;;
51312;SDS011;37397;53.226;10.400;2024-02-15T08:08:36;18.15;;;11.18;;
51312;SDS011;37397;53.226;10.400;2024-02-15T08:11:02;19.15;;;11.35;;
51312;SDS011;37397;53.226;10.400;2024-02-15T08:13:30;14.85;;;10.05;;
51312;SDS011;37397;53.226;10.400;2024-02-15T08:15:56;18.63;;;11.05;;
51312;SDS011;37397;53.226;10.400;2024-02-15T08:18:23;16.23;;;10.82;;
51312;SDS011;37397;53.226;10.400;2024-02-15T08:20:49;17.10;;;10.10;;
51312;SDS011;37397;53.226;10.400;2024-02-15T08:23:16;15.65;;;10.35;;
51312;SDS011;37397;53.226;10.400;2024-02-15T08:25:43;14.88;;;9.13;;
51312;SDS011;37397;53.226;10.400;2024-02-15T08:28:10;14.18;;;9.55;;
51312;SDS011;37397;53.226;10.400;2024-02-15T08:30:38;14.57;;;9.88;;
51312;SDS011;37397;53.226;10.400;2024-02-15T08:33:04;13.85;;;8.68;;
51312;SDS011;37397;53.226;10.400;2024-02-15T08:35:31;12.68;;;8.52;;
51312;SDS011;37397;53.226;10.400;2024-02-15T08:37:58;14.38;;;9.00;;
51312;SDS011;37397;53.226;10.400;2024-02-15T08:40:25;13.82;;;8.95;;
51312;SDS011;37397;53.226;10.400;2024-02-15T08:42:52;12.20;;;8.18;;
51312;SDS011;37397;53.226;10.400;2024-02-15T08:45:19;13.05;;;8.23;;
51312;SDS011;37397;53.226;10.400;2024-02-15T08:47:46;14.13;;;8.65;;
51312;SDS011;37397;53.226;10.400;2024-02-15T08:50:16;11.88;;;7.57;;
51312;SDS011;37397;53.226;10.400;2024-02-15T08:52:43;12.68;;;7.88;;
51312;SDS011;37397;53.226;10.400;2024-02-15T08:55:10;11.95;;;7.72;;
51312;SDS011;37397;53.226;10.400;2024-02-15T08:57:40;12.18;;;7.88;;
51312;SDS011;37397;53.226;10.400;2024-02-15T09:00:08;10.13;;;6.90;;
51312;SDS011;37397;53.226;10.400;2024-02-15T09:02:44;12.35;;;7.13;;
51312;SDS011;37397;53.226;10.400;2024-02-15T09:05:11;10.10;;;6.80;;
51312;SDS011;37397;53.226;10.400;2024-02-15T09:07:41;10.95;;;6.97;;
51312;SDS011;37397;53.226;10.400;2024-02-15T09:10:09;11.15;;;7.07;;
51312;SDS011;37397;53.226;10.400;2024-02-15T09:12:37;11.65;;;6.80;;
51312;SDS011;37397;53.226;10.400;2024-02-15T09:15:09;10.40;;;6.60;;
51312;SDS011;37397;53.226;10.400;2024-02-15T09:17:37;10.82;;;6.53;;
51312;SDS011;37397;53.226;10.400;2024-02-15T09:20:08;9.82;;;6.60;;
51312;SDS011;37397;53.226;10.400;2024-02-15T09:25:08;9.95;;;6.82;;
51312;SDS011;37397;53.226;10.400;2024-02-15T09:27:35;10.45;;;6.90;;
51312;SDS011;37397;53.226;10.400;2024-02-15T09:30:03;9.45;;;6.53;;
51312;SDS011;37397;53.226;10.400;2024-02-15T09:32:34;10.35;;;6.88;;
51312;SDS011;37397;53.226;10.400;2024-02-15T09:35:01;13.07;;;6.93;;
51312;SDS011;37397;53.226;10.400;2024-02-15T09:37:33;11.93;;;7.15;;
51312;SDS011;37397;53.226;10.400;2024-02-15T09:40:08;10.27;;;7.00;;
51312;SDS011;37397;53.226;10.400;2024-02-15T09:42:37;12.30;;;7.43;;
51312;SDS011;37397;53.226;10.400;2024-02-15T09:45:07;10.77;;;7.60;;
51312;SDS011;37397;53.226;10.400;2024-02-15T09:47:39;11.40;;;8.20;;
51312;SDS011;37397;53.226;10.400;2024-02-15T09:50:07;13.32;;;8.60;;
51312;SDS011;37397;53.226;10.400;2024-02-15T09:52:44;14.10;;;9.38;;
51312;SDS011;37397;53.226;10.400;2024-02-15T09:55:18;13.20;;;8.90;;
51312;SDS011;37397;53.226;10.400;2024-02-15T09:57:45;14.90;;;10.18;;
51312;SDS011;37397;53.226;10.400;2024-02-15T10:00:13;20.70;;;10.35;;
51312;SDS011;37397;53.226;10.400;2024-02-15T10:02:49;15.73;;;10.55;;
51312;SDS011;37397;53.226;10.400;2024-02-15T10:05:19;17.40;;;11.05;;
51312;SDS011;37397;53.226;10.400;2024-02-15T10:07:47;19.80;;;11.93;;
51312;SDS011;37397;53.226;10.400;2024-02-15T10:10:23;19.52;;;12.18;;
51312;SDS011;37397;53.226;10.400;2024-02-15T10:12:52;20.27;;;12.07;;
51312;SDS011;37397;53.226;10.400;2024-02-15T10:15:36;21.35;;;12.38;;
51312;SDS011;37397;53.226;10.400;2024-02-15T10:18:05;18.10;;;12.55;;
51312;SDS011;37397;53.226;10.400;2024-02-15T10:20:35;22.52;;;13.27;;
51312;SDS011;37397;53.226;10.400;2024-02-15T10:25:35;23.98;;;14.15;;
51312;SDS011;37397;53.226;10.400;2024-02-15T10:30:34;20.65;;;14.27;;
51312;SDS011;37397;53.226;10.400;2024-02-15T10:33:05;23.85;;;15.45;;
51312;SDS011;37397;53.226;10.400;2024-02-15T10:35:34;20.42;;;14.77;;
51312;SDS011;37397;53.226;10.400;2024-02-15T10:38:04;24.52;;;15.65;;
51312;SDS011;37397;53.226;10.400;2024-02-15T10:40:39;24.90;;;15.55;;
51312;SDS011;37397;53.226;10.400;2024-02-15T10:43:10;23.33;;;14.95;;
51312;SDS011;37397;53.226;10.400;2024-02-15T10:45:40;25.45;;;15.85;;
51312;SDS011;37397;53.226;10.400;2024-02-15T10:48:08;28.50;;;16.88;;
51312;SDS011;37397;53.226;10.400;2024-02-15T10:50:36;29.73;;;18.25;;
51312;SDS011;37397;53.226;10.400;2024-02-15T10:53:20;26.25;;;17.05;;
51312;SDS011;37397;53.226;10.400;2024-02-15T10:58:22;26.98;;;17.58;;
51312;SDS011;37397;53.226;10.400;2024-02-15T11:00:55;26.52;;;18.58;;
51312;SDS011;37397;53.226;10.400;2024-02-15T11:03:25;30.38;;;19.20;;
51312;SDS011;37397;53.226;10.400;2024-02-15T11:05:57;30.27;;;20.07;;
51312;SDS011;37397;53.226;10.400;2024-02-15T11:08:27;27.85;;;19.77;;
51312;SDS011;37397;53.226;10.400;2024-02-15T11:10:54;32.88;;;19.65;;
51312;SDS011;37397;53.226;10.400;2024-02-15T11:13:25;31.83;;;20.25;;
51312;SDS011;37397;53.226;10.400;2024-02-15T11:15:51;27.30;;;18.83;;
51312;SDS011;37397;53.226;10.400;2024-02-15T11:21:15;30.88;;;19.80;;
51312;SDS011;37397;53.226;10.400;2024-02-15T11:23:43;30.98;;;21.27;;
51312;SDS011;37397;53.226;10.400;2024-02-15T11:29:09;31.42;;;20.52;;
51312;SDS011;37397;53.226;10.400;2024-02-15T11:31:54;29.20;;;20.60;;
51312;SDS011;37397;53.226;10.400;2024-02-15T11:40:19;26.00;;;19.77;;
51312;SDS011;37397;53.226;10.400;2024-02-15T11:42:58;31.00;;;19.83;;
51312;SDS011;37397;53.226;10.400;2024-02-15T11:45:27;27.38;;;18.00;;
51312;SDS011;37397;53.226;10.400;2024-02-15T11:48:00;30.02;;;18.40;;
51312;SDS011;37397;53.226;10.400;2024-02-15T11:50:28;25.85;;;18.60;;
51312;SDS011;37397;53.226;10.400;2024-02-15T11:53:06;26.20;;;17.98;;
51312;SDS011;37397;53.226;10.400;2024-02-15T11:55:38;24.88;;;17.50;;
51312;SDS011;37397;53.226;10.400;2024-02-15T11:58:09;23.02;;;16.55;;
51312;SDS011;37397;53.226;10.400;2024-02-15T12:00:37;22.48;;;15.70;;
51312;SDS011;37397;53.226;10.400;2024-02-15T12:03:24;23.27;;;16.20;;
51312;SDS011;37397;53.226;10.400;2024-02-15T12:06:26;22.77;;;15.30;;
51312;SDS011;37397;53.226;10.400;2024-02-15T12:09:12;20.73;;;13.63;;
51312;SDS011;37397;53.226;10.400;2024-02-15T12:12:03;22.73;;;14.65;;
51312;SDS011;37397;53.226;10.400;2024-02-15T12:14:48;19.27;;;13.02;;
51312;SDS011;37397;53.226;10.400;2024-02-15T12:17:34;21.67;;;13.05;;
51312;SDS011;37397;53.226;10.400;2024-02-15T12:20:20;18.90;;;12.23;;
51312;SDS011;37397;53.226;10.400;2024-02-15T12:22:51;18.48;;;11.82;;
51312;SDS011;37397;53.226;10.400;2024-02-15T12:25:20;18.75;;;12.55;;
51312;SDS011;37397;53.226;10.400;2024-02-15T12:27:54;16.17;;;11.63;;
51312;SDS011;37397;53.226;10.400;2024-02-15T12:30:22;16.90;;;10.70;;
51312;SDS011;37397;53.226;10.400;2024-02-15T12:32:52;16.13;;;10.95;;
51312;SDS011;37397;53.226;10.400;2024-02-15T12:35:35;17.63;;;10.38;;
51312;SDS011;37397;53.226;10.400;2024-02-15T12:38:02;18.15;;;10.20;;
51312;SDS011;37397;53.226;10.400;2024-02-15T12:40:35;18.63;;;9.70;;
51312;SDS011;37397;53.226;10.400;2024-02-15T12:43:06;15.65;;;9.48;;
51312;SDS011;37397;53.226;10.400;2024-02-15T12:45:38;13.30;;;8.43;;
51312;SDS011;37397;53.226;10.400;2024-02-15T12:48:07;13.93;;;8.60;;
51312;SDS011;37397;53.226;10.400;2024-02-15T12:50:35;13.52;;;8.63;;
51312;SDS011;37397;53.226;10.400;2024-02-15T12:53:02;13.82;;;8.57;;
51312;SDS011;37397;53.226;10.400;2024-02-15T12:55:29;11.20;;;7.78;;
51312;SDS011;37397;53.226;10.400;2024-02-15T12:58:04;13.63;;;6.93;;
51312;SDS011;37397;53.226;10.400;2024-02-15T13:00:39;12.85;;;6.85;;
51312;SDS011;37397;53.226;10.400;2024-02-15T13:03:07;10.63;;;6.90;;
51312;SDS011;37397;53.226;10.400;2024-02-15T13:05:37;11.52;;;6.38;;
51312;SDS011;37397;53.226;10.400;2024-02-15T13:08:05;13.30;;;7.00;;
51312;SDS011;37397;53.226;10.400;2024-02-15T13:10:36;10.60;;;6.10;;
51312;SDS011;37397;53.226;10.400;2024-02-15T13:13:02;9.90;;;5.90;;
51312;SDS011;37397;53.226;10.400;2024-02-15T13:15:29;8.75;;;5.43;;
51312;SDS011;37397;53.226;10.400;2024-02-15T13:18:00;9.68;;;5.70;;
51312;SDS011;37397;53.226;10.400;2024-02-15T13:20:27;8.88;;;5.10;;
51312;SDS011;37397;53.226;10.400;2024-02-15T13:22:59;9.88;;;5.28;;
51312;SDS011;37397;53.226;10.400;2024-02-15T13:25:35;8.05;;;5.07;;
51312;SDS011;37397;53.226;10.400;2024-02-15T13:28:10;11.02;;;5.40;;
51312;SDS011;37397;53.226;10.400;2024-02-15T13:30:38;9.07;;;5.13;;
51312;SDS011;37397;53.226;10.400;2024-02-15T13:33:04;7.57;;;4.90;;
51312;SDS011;37397;53.226;10.400;2024-02-15T13:35:32;10.02;;;5.50;;
51312;SDS011;37397;53.226;10.400;2024-02-15T13:37:58;10.20;;;5.30;;
51312;SDS011;37397;53.226;10.400;2024-02-15T13:40:26;8.15;;;5.00;;
51312;SDS011;37397;53.226;10.400;2024-02-15T13:42:55;11.32;;;5.47;;
51312;SDS011;37397;53.226;10.400;2024-02-15T13:47:59;9.27;;;5.13;;
51312;SDS011;37397;53.226;10.400;2024-02-15T13:50:30;6.93;;;4.78;;
51312;SDS011;37397;53.226;10.400;2024-02-15T13:52:57;8.10;;;4.50;;
51312;SDS011;37397;53.226;10.400;2024-02-15T13:55:25;8.50;;;4.90;;
51312;SDS011;37397;53.226;10.400;2024-02-15T13:57:52;8.07;;;4.57;;
51312;SDS011;37397;53.226;10.400;2024-02-15T14:00:19;7.20;;;4.18;;
51312;SDS011;37397;53.226;10.400;2024-02-15T14:02:53;7.05;;;3.95;;
51312;SDS011;37397;53.226;10.400;2024-02-15T14:05:22;8.43;;;4.38;;
51312;SDS011;37397;53.226;10.400;2024-02-15T14:07:52;6.68;;;3.60;;
51312;SDS011;37397;53.226;10.400;2024-02-15T14:10:22;6.93;;;4.38;;
51312;SDS011;37397;53.226;10.400;2024-02-15T14:12:49;7.35;;;4.07;;
51312;SDS011;37397;53.226;10.400;2024-02-15T14:15:29;7.63;;;3.97;;
51312;SDS011;37397;53.226;10.400;2024-02-15T14:17:56;6.90;;;4.15;;
51312;SDS011;37397;53.226;10.400;2024-02-15T14:20:23;7.40;;;4.20;;
51312;SDS011;37397;53.226;10.400;2024-02-15T14:22:50;7.90;;;3.97;;
51312;SDS011;37397;53.226;10.400;2024-02-15T14:25:24;5.88;;;4.15;;
51312;SDS011;37397;53.226;10.400;2024-02-15T14:27:58;5.60;;;3.58;;
51312;SDS011;37397;53.226;10.400;2024-02-15T14:30:25;9.20;;;4.05;;
51312;SDS011;37397;53.226;10.400;2024-02-15T14:33:10;7.90;;;4.40;;
51312;SDS011;37397;53.226;10.400;2024-02-15T14:35:45;6.93;;;4.03;;
51312;SDS011;37397;53.226;10.400;2024-02-15T14:38:12;5.85;;;3.50;;
51312;SDS011;37397;53.226;10.400;2024-02-15T14:40:40;7.80;;;3.95;;
51312;SDS011;37397;53.226;10.400;2024-02-15T14:43:12;8.23;;;3.90;;
51312;SDS011;37397;53.226;10.400;2024-02-15T14:45:44;6.65;;;3.60;;
51312;SDS011;37397;53.226;10.400;2024-02-15T14:48:11;7.82;;;4.03;;
51312;SDS011;37397;53.226;10.400;2024-02-15T14:50:40;7.15;;;4.25;;
51312;SDS011;37397;53.226;10.400;2024-02-15T14:53:07;5.55;;;3.80;;
51312;SDS011;37397;53.226;10.400;2024-02-15T14:55:35;6.90;;;3.92;;
51312;SDS011;37397;53.226;10.400;2024-02-15T14:58:08;7.75;;;4.40;;